Terminal Aerodrome Forecast
Issued by NWS

Home | Current Version | Previous Version | Text Only | Print | Product List | Glossary On
Versions: 1 2 3 4 5 6 7 8 9 10 11 12
000
FTUS44 KTSA 251140
TAFFYV
TAF
KFYV 251140Z 2512/2612 VRB06KT P6SM SCT040 BKN250
     FM251900 26007KT P6SM VCTS BKN050CB BKN120
     FM252200 33010KT P6SM VCTS SCT025 BKN040CB BKN120
      TEMPO 2522/2601 6SM -TSRA BKN022CB
     FM260100 35009KT P6SM BKN025 BKN035
     FM260600 01003KT P6SM BKN045 BKN100=

USA.gov is the U.S. government's official web portal to all federal, state and local government web resources and services.